Terminal Aerodrome Forecast
Issued by NWS

Home | Current Version | Previous Version | Graphics & Text | Print | Product List | Glossary On
Versions: 1 2 3 4 5 6 7 8 9 10 11 12 13 14 15
000
FTUS43 KICT 300317 AAA
TAFRSL
TAF AMD
KRSL 300317Z 3003/3024 35017G25KT P6SM SCT015 OVC100
      TEMPO 3003/3006 BKN015
     FM300900 35016G23KT P6SM FEW025 SCT100
     FM301600 35012KT P6SM SKC=

USA.gov is the U.S. government's official web portal to all federal, state and local government web resources and services.